Time;durP1;ratioP1;P1;durP2;ratioP2;P2;SDS_P1;SDS_P2;PMS_P1;PMS_P2;Temp;Humidity;BMP_temperature;BMP_pressure;BME280_temperature;BME280_humidity;BME280_pressure;Samples;Min_cycle;Max_cycle;Signal;HPM_P1;HPM_P2
2023/06/17 00:00:24;;;;;;;;;;;16.30;59.40;;;;;;6276040;22;19949;-77
2023/06/17 00:02:51;;;;;;;;;;;16.30;58.50;;;;;;6274793;22;19942;-75
2023/06/17 00:05:17;;;;;;;;;;;16.30;58.20;;;;;;6249257;22;19915;-75
2023/06/17 00:07:44;;;;;;;;;;;16.30;58.40;;;;;;6277115;22;19957;-76
2023/06/17 00:10:10;;;;;;;;;;;16.30;58.70;;;;;;6251310;22;19973;-76
2023/06/17 00:12:37;;;;;;;;;;;16.30;58.60;;;;;;6251487;22;19912;-75
2023/06/17 00:15:05;;;;;;;;;;;16.30;58.70;;;;;;6226082;22;19911;-76
2023/06/17 00:17:32;;;;;;;;;;;16.20;59.00;;;;;;6251039;22;19918;-75
2023/06/17 00:20:11;;;;;;;;;;;16.20;59.00;;;;;;6251728;22;19990;-76
2023/06/17 00:22:38;;;;;;;;;;;16.20;59.30;;;;;;6253065;22;19911;-76
2023/06/17 00:25:05;;;;;;;;;;;16.10;59.20;;;;;;6251586;22;19917;-76
2023/06/17 00:27:31;;;;;;;;;;;16.10;59.40;;;;;;6251346;22;19919;-76
2023/06/17 00:30:00;;;;;;;;;;;16.00;58.80;;;;;;6251630;22;20236;-75
2023/06/17 00:32:45;;;;;;;;;;;16.00;59.60;;;;;;6277782;22;19918;-76
2023/06/17 00:35:11;;;;;;;;;;;16.00;59.50;;;;;;6225274;22;19911;-76
2023/06/17 00:37:37;;;;;;;;;;;16.00;59.80;;;;;;6278277;22;20107;-76
2023/06/17 00:40:07;;;;;;;;;;;15.90;59.90;;;;;;6251134;22;19942;-76
2023/06/17 00:42:34;;;;;;;;;;;15.90;59.50;;;;;;6278683;22;20332;-76
2023/06/17 00:45:00;;;;;;;;;;;15.90;60.20;;;;;;6251432;22;19979;-76
2023/06/17 00:47:26;;;;;;;;;;;15.90;60.30;;;;;;6277408;22;19946;-76
2023/06/17 00:49:53;;;;;;;;;;;15.90;60.40;;;;;;6251201;22;19911;-76
2023/06/17 00:52:19;;;;;;;;;;;15.80;59.60;;;;;;6250556;22;19961;-75
2023/06/17 00:54:45;;;;;;;;;;;15.80;59.90;;;;;;6251257;22;19935;-76
2023/06/17 00:57:31;;;;;;;;;;;15.80;60.70;;;;;;6277423;22;19918;-76
2023/06/17 00:59:57;;;;;;;;;;;15.80;60.40;;;;;;6251144;22;19918;-76
2023/06/17 01:02:25;;;;;;;;;;;15.80;60.50;;;;;;6250460;22;19943;-77
2023/06/17 01:04:52;;;;;;;;;;;15.80;60.50;;;;;;6251727;22;20287;-76
2023/06/17 01:07:57;;;;;;;;;;;15.70;60.60;;;;;;6250503;22;20374;-76
2023/06/17 01:10:42;;;;;;;;;;;15.70;60.70;;;;;;6250280;22;19926;-76
2023/06/17 01:13:09;;;;;;;;;;;15.70;60.70;;;;;;6278162;22;19994;-76
2023/06/17 01:15:36;;;;;;;;;;;15.70;60.90;;;;;;6277327;22;19911;-75
2023/06/17 01:18:04;;;;;;;;;;;15.60;61.00;;;;;;6250757;22;19907;-76
2023/06/17 01:20:32;;;;;;;;;;;15.60;61.00;;;;;;6249830;22;19911;-76
2023/06/17 01:23:02;;;;;;;;;;;15.60;60.90;;;;;;6250814;22;19915;-76
2023/06/17 01:25:31;;;;;;;;;;;15.60;60.90;;;;;;6277381;22;19919;-76
2023/06/17 01:28:03;;;;;;;;;;;15.60;61.20;;;;;;6250459;22;20321;-76
2023/06/17 01:30:29;;;;;;;;;;;15.40;60.80;;;;;;6277366;22;20221;-75
2023/06/17 01:33:14;;;;;;;;;;;15.40;61.00;;;;;;6250953;22;19908;-76
2023/06/17 01:35:45;;;;;;;;;;;15.30;60.70;;;;;;6277278;22;19965;-76
2023/06/17 01:38:29;;;;;;;;;;;15.20;60.80;;;;;;6250631;22;19961;-76
2023/06/17 01:41:19;;;;;;;;;;;15.10;60.70;;;;;;6277357;22;19911;-76
2023/06/17 01:43:46;;;;;;;;;;;15.00;60.70;;;;;;6277855;22;19933;-76
2023/06/17 01:46:15;;;;;;;;;;;14.80;60.90;;;;;;6249882;22;19915;-76
2023/06/17 01:48:41;;;;;;;;;;;14.80;60.80;;;;;;6251208;22;19917;-76
2023/06/17 01:51:08;;;;;;;;;;;14.90;60.90;;;;;;6249953;22;19919;-76
2023/06/17 01:53:50;;;;;;;;;;;14.90;60.70;;;;;;6225232;22;19943;-75
2023/06/17 01:56:16;;;;;;;;;;;15.00;60.70;;;;;;6250476;22;20384;-75
2023/06/17 01:58:42;;;;;;;;;;;14.90;60.40;;;;;;6250510;22;19911;-76
2023/06/17 02:01:08;;;;;;;;;;;14.80;61.00;;;;;;6249739;22;19919;-76
2023/06/17 02:03:34;;;;;;;;;;;14.80;61.90;;;;;;6250118;22;19911;-76
2023/06/17 02:06:00;;;;;;;;;;;14.80;61.00;;;;;;6249885;22;19911;-76
2023/06/17 02:08:26;;;;;;;;;;;14.80;60.90;;;;;;6250375;22;19918;-76
2023/06/17 02:10:52;;;;;;;;;;;14.80;60.80;;;;;;6224558;22;19911;-76
2023/06/17 02:13:18;;;;;;;;;;;14.70;61.10;;;;;;6250126;22;19934;-75
2023/06/17 02:15:44;;;;;;;;;;;14.70;61.40;;;;;;6276688;22;19918;-76
2023/06/17 02:18:12;;;;;;;;;;;14.70;61.30;;;;;;6224765;22;19981;-76
2023/06/17 02:20:38;;;;;;;;;;;14.70;61.40;;;;;;6250217;22;19915;-76
2023/06/17 02:23:05;;;;;;;;;;;14.70;61.30;;;;;;6224791;22;19915;-75
2023/06/17 02:25:31;;;;;;;;;;;14.80;61.60;;;;;;6250019;22;19956;-76
2023/06/17 02:27:57;;;;;;;;;;;14.90;61.30;;;;;;6250099;22;19934;-76
2023/06/17 02:30:23;;;;;;;;;;;15.00;61.40;;;;;;6249603;22;20005;-75
2023/06/17 02:32:48;;;;;;;;;;;15.00;61.40;;;;;;6250068;22;19985;-76
2023/06/17 02:35:15;;;;;;;;;;;15.00;61.70;;;;;;6277252;22;20226;-76
2023/06/17 02:37:41;;;;;;;;;;;15.00;61.80;;;;;;6250141;22;20251;-76
2023/06/17 02:40:08;;;;;;;;;;;15.00;62.00;;;;;;6249721;22;20154;-76
2023/06/17 02:42:35;;;;;;;;;;;15.00;61.70;;;;;;6250067;22;19918;-76
2023/06/17 02:45:02;;;;;;;;;;;15.00;62.00;;;;;;6250053;22;19980;-77
2023/06/17 02:47:29;;;;;;;;;;;15.00;61.90;;;;;;6249522;22;19919;-75
2023/06/17 02:49:55;;;;;;;;;;;15.00;61.60;;;;;;6250120;22;19915;-76
2023/06/17 02:52:21;;;;;;;;;;;15.10;62.20;;;;;;6249175;22;19982;-76
2023/06/17 02:54:47;;;;;;;;;;;15.10;62.10;;;;;;6277466;22;19911;-76
2023/06/17 02:57:12;;;;;;;;;;;15.10;61.90;;;;;;6249285;22;19911;-76
2023/06/17 02:59:38;;;;;;;;;;;15.20;61.90;;;;;;6277192;22;20010;-76
2023/06/17 03:02:04;;;;;;;;;;;15.30;62.20;;;;;;6249229;22;19918;-76
2023/06/17 03:04:34;;;;;;;;;;;15.30;62.40;;;;;;6250153;22;20165;-76
2023/06/17 03:07:19;;;;;;;;;;;15.30;62.30;;;;;;6249143;22;19967;-76
2023/06/17 03:09:45;;;;;;;;;;;15.30;62.10;;;;;;6250074;22;19911;-76
2023/06/17 03:12:12;;;;;;;;;;;15.30;62.30;;;;;;6249367;22;20233;-75
2023/06/17 03:14:38;;;;;;;;;;;15.30;62.50;;;;;;6249703;22;19915;-76
2023/06/17 03:17:04;;;;;;;;;;;15.40;62.30;;;;;;6276143;22;19911;-76
2023/06/17 03:19:29;;;;;;;;;;;15.40;61.80;;;;;;6224438;22;19911;-77
2023/06/17 03:21:55;;;;;;;;;;;15.50;62.40;;;;;;6248993;22;19942;-76
2023/06/17 03:24:21;;;;;;;;;;;15.60;62.50;;;;;;6249708;22;19930;-76
2023/06/17 03:26:47;;;;;;;;;;;15.60;62.40;;;;;;6223643;22;19911;-76
2023/06/17 03:29:13;;;;;;;;;;;15.70;62.60;;;;;;6249925;22;19911;-76
2023/06/17 03:31:39;;;;;;;;;;;15.60;62.60;;;;;;6249178;22;19938;-75
2023/06/17 03:34:05;;;;;;;;;;;15.60;62.70;;;;;;6249650;22;19911;-76
2023/06/17 03:36:31;;;;;;;;;;;15.50;63.20;;;;;;6248884;22;19999;-76
2023/06/17 03:38:57;;;;;;;;;;;15.60;63.00;;;;;;6276850;22;19972;-77
2023/06/17 03:41:24;;;;;;;;;;;15.60;62.50;;;;;;6249001;22;20347;-76
2023/06/17 03:43:50;;;;;;;;;;;15.60;63.00;;;;;;6252735;22;19907;-76
2023/06/17 03:46:17;;;;;;;;;;;15.60;63.10;;;;;;6226923;22;19934;-76
2023/06/17 03:48:43;;;;;;;;;;;15.60;63.40;;;;;;6252992;22;19912;-76
2023/06/17 03:51:09;;;;;;;;;;;15.60;63.60;;;;;;6279508;22;20299;-76
2023/06/17 03:53:35;;;;;;;;;;;15.60;63.90;;;;;;6280065;22;19939;-76
2023/06/17 03:56:01;;;;;;;;;;;15.60;63.50;;;;;;6280174;22;19998;-76
2023/06/17 03:58:28;;;;;;;;;;;15.60;63.50;;;;;;6253075;22;20285;-76
2023/06/17 04:00:54;;;;;;;;;;;15.60;63.20;;;;;;6252308;22;20248;-76
2023/06/17 04:03:24;;;;;;;;;;;15.60;63.50;;;;;;6279807;22;19965;-76
2023/06/17 04:06:09;;;;;;;;;;;15.50;63.10;;;;;;6253338;22;19916;-76
2023/06/17 04:08:37;;;;;;;;;;;15.50;63.70;;;;;;6227457;22;19911;-76
2023/06/17 04:11:03;;;;;;;;;;;15.60;63.80;;;;;;6252928;22;19911;-76
2023/06/17 04:13:29;;;;;;;;;;;15.60;63.90;;;;;;6227324;22;20316;-76
2023/06/17 04:15:56;;;;;;;;;;;15.60;63.90;;;;;;6252452;22;19917;-76
2023/06/17 04:18:22;;;;;;;;;;;15.60;63.90;;;;;;6252661;22;19930;-76
2023/06/17 04:20:49;;;;;;;;;;;15.60;63.50;;;;;;6252265;22;20287;-75
2023/06/17 04:23:15;;;;;;;;;;;15.60;63.80;;;;;;6227491;22;19915;-76
2023/06/17 04:25:42;;;;;;;;;;;15.70;64.30;;;;;;6252471;22;19945;-76
2023/06/17 04:28:12;;;;;;;;;;;15.80;64.00;;;;;;6279738;22;19915;-76
2023/06/17 04:30:40;;;;;;;;;;;15.80;64.50;;;;;;6279506;22;20006;-76
2023/06/17 04:33:06;;;;;;;;;;;15.90;64.50;;;;;;6227723;22;19982;-76
2023/06/17 04:35:32;;;;;;;;;;;15.90;64.30;;;;;;6252455;22;20342;-76
2023/06/17 04:37:58;;;;;;;;;;;15.90;64.20;;;;;;6227364;22;19911;-75
2023/06/17 04:40:24;;;;;;;;;;;16.00;64.00;;;;;;6252391;22;20346;-76
2023/06/17 04:42:50;;;;;;;;;;;15.90;64.40;;;;;;6252735;22;19918;-76
2023/06/17 04:45:17;;;;;;;;;;;15.90;65.70;;;;;;6226802;22;19926;-77
2023/06/17 04:47:44;;;;;;;;;;;15.90;65.30;;;;;;6222057;23;20387;-77
2023/06/17 04:50:12;;;;;;;;;;;15.90;65.60;;;;;;6247158;23;19965;-76
2023/06/17 04:52:47;;;;;;;;;;;15.90;66.20;;;;;;6247522;23;19961;-76
2023/06/17 04:55:13;;;;;;;;;;;15.90;66.20;;;;;;6245068;23;19908;-76
2023/06/17 04:57:59;;;;;;;;;;;16.00;65.70;;;;;;6245790;23;19912;-75
2023/06/17 05:00:25;;;;;;;;;;;16.10;65.40;;;;;;6245408;23;19911;-76
2023/06/17 05:02:51;;;;;;;;;;;16.20;65.20;;;;;;6245864;23;19919;-76
2023/06/17 05:05:17;;;;;;;;;;;16.20;65.10;;;;;;6245557;23;20357;-76
2023/06/17 05:07:43;;;;;;;;;;;16.30;65.00;;;;;;6245766;23;19947;-76
2023/06/17 05:10:09;;;;;;;;;;;16.30;65.60;;;;;;6245237;23;20273;-76
2023/06/17 05:12:35;;;;;;;;;;;16.30;64.70;;;;;;6247277;22;19911;-76
2023/06/17 05:15:01;;;;;;;;;;;16.40;65.10;;;;;;6247159;23;19934;-76
2023/06/17 05:17:27;;;;;;;;;;;16.50;65.30;;;;;;6219950;23;20384;-76
2023/06/17 05:19:53;;;;;;;;;;;16.60;65.10;;;;;;6247616;22;19935;-76
2023/06/17 05:22:18;;;;;;;;;;;16.60;65.10;;;;;;6247294;22;19915;-75
2023/06/17 05:24:44;;;;;;;;;;;16.70;64.90;;;;;;6245635;23;19912;-75
2023/06/17 05:27:10;;;;;;;;;;;16.80;64.60;;;;;;6244891;23;19942;-76
2023/06/17 05:29:36;;;;;;;;;;;16.90;64.40;;;;;;6247283;22;19990;-76
2023/06/17 05:32:02;;;;;;;;;;;17.00;64.10;;;;;;6219863;23;20359;-76
2023/06/17 05:34:28;;;;;;;;;;;17.10;63.60;;;;;;6247219;22;19922;-75
2023/06/17 05:36:54;;;;;;;;;;;17.30;64.00;;;;;;6244980;23;19955;-76
2023/06/17 05:39:20;;;;;;;;;;;17.40;63.70;;;;;;6220327;23;19918;-76
2023/06/17 05:41:46;;;;;;;;;;;17.40;63.40;;;;;;6245027;23;19912;-76
2023/06/17 05:44:12;;;;;;;;;;;17.50;63.30;;;;;;6247397;22;19943;-76
2023/06/17 05:46:38;;;;;;;;;;;17.60;63.90;;;;;;6244569;23;19988;-76
2023/06/17 05:49:04;;;;;;;;;;;17.60;63.40;;;;;;6246932;22;20003;-75
2023/06/17 05:51:30;;;;;;;;;;;17.80;63.10;;;;;;6244923;23;20245;-76
2023/06/17 05:53:55;;;;;;;;;;;17.90;62.80;;;;;;6247056;22;19936;-76
2023/06/17 05:56:21;;;;;;;;;;;18.00;62.10;;;;;;6246231;22;19947;-76
2023/06/17 05:58:47;;;;;;;;;;;18.10;61.80;;;;;;6245330;23;19939;-75
2023/06/17 06:01:13;;;;;;;;;;;18.20;61.50;;;;;;6244959;23;20357;-76
2023/06/17 06:03:39;;;;;;;;;;;18.30;61.20;;;;;;6245330;23;19911;-75
2023/06/17 06:06:05;;;;;;;;;;;18.40;61.00;;;;;;6246516;22;19958;-75
2023/06/17 06:08:31;;;;;;;;;;;18.50;60.90;;;;;;6246822;22;19918;-75
2023/06/17 06:10:57;;;;;;;;;;;18.60;60.60;;;;;;6246527;22;20404;-76
2023/06/17 06:13:23;;;;;;;;;;;18.80;60.50;;;;;;6245106;23;20345;-76
2023/06/17 06:15:49;;;;;;;;;;;18.90;60.10;;;;;;6244570;22;19918;-76
2023/06/17 06:18:15;;;;;;;;;;;19.00;59.80;;;;;;6246708;22;19915;-75
2023/06/17 06:20:41;;;;;;;;;;;19.10;59.60;;;;;;6244726;22;19966;-76
2023/06/17 06:23:08;;;;;;;;;;;19.20;58.60;;;;;;6246589;22;19915;-76
2023/06/17 06:25:35;;;;;;;;;;;19.30;58.80;;;;;;6244479;22;19911;-77
2023/06/17 06:28:01;;;;;;;;;;;19.30;57.40;;;;;;6244878;23;20300;-76
2023/06/17 06:30:26;;;;;;;;;;;19.50;57.90;;;;;;6246185;22;19990;-76
2023/06/17 06:32:52;;;;;;;;;;;19.50;58.00;;;;;;6244957;23;20481;-76
2023/06/17 06:35:18;;;;;;;;;;;19.70;57.90;;;;;;6244318;23;19917;-75
2023/06/17 06:37:44;;;;;;;;;;;19.80;58.30;;;;;;6246089;22;19911;-76
2023/06/17 06:40:10;;;;;;;;;;;19.90;57.20;;;;;;6218935;22;19907;-77
2023/06/17 06:42:37;;;;;;;;;;;20.10;56.40;;;;;;6244869;23;19919;-76
2023/06/17 06:45:03;;;;;;;;;;;20.10;56.30;;;;;;6244744;22;19907;-76
2023/06/17 06:47:29;;;;;;;;;;;20.20;55.70;;;;;;6243978;23;20218;-76
2023/06/17 06:49:55;;;;;;;;;;;20.40;56.10;;;;;;6244954;22;20373;-76
2023/06/17 06:52:21;;;;;;;;;;;20.50;56.30;;;;;;6246310;22;19912;-76
2023/06/17 06:54:47;;;;;;;;;;;20.50;56.30;;;;;;6244895;23;20289;-75
2023/06/17 06:57:13;;;;;;;;;;;20.70;56.20;;;;;;6244445;22;19919;-76
2023/06/17 06:59:38;;;;;;;;;;;20.80;56.00;;;;;;6246279;22;19921;-75
2023/06/17 07:02:05;;;;;;;;;;;20.80;55.90;;;;;;6244401;23;20185;-77
2023/06/17 07:04:31;;;;;;;;;;;20.90;55.80;;;;;;6244856;23;19911;-77
2023/06/17 07:06:57;;;;;;;;;;;21.00;56.00;;;;;;6245507;22;20021;-76
2023/06/17 07:09:23;;;;;;;;;;;21.10;56.00;;;;;;6244842;23;19911;-76
2023/06/17 07:11:49;;;;;;;;;;;21.20;55.20;;;;;;6244243;22;20009;-77
2023/06/17 07:14:15;;;;;;;;;;;21.40;55.10;;;;;;6246309;22;19995;-75
2023/06/17 07:16:41;;;;;;;;;;;21.50;55.00;;;;;;6244007;22;19986;-76
2023/06/17 07:19:06;;;;;;;;;;;21.60;54.90;;;;;;6243722;23;20318;-75
2023/06/17 07:21:32;;;;;;;;;;;21.70;54.70;;;;;;6245508;22;20221;-77
2023/06/17 07:23:58;;;;;;;;;;;21.80;55.00;;;;;;6244593;23;19990;-76
2023/06/17 07:26:24;;;;;;;;;;;21.90;55.00;;;;;;6218881;23;19912;-76
2023/06/17 07:28:50;;;;;;;;;;;22.00;54.10;;;;;;6244387;23;19911;-76
2023/06/17 07:31:16;;;;;;;;;;;22.00;53.30;;;;;;6218852;23;19934;-75
2023/06/17 07:33:42;;;;;;;;;;;22.10;52.10;;;;;;6244497;23;19918;-76
2023/06/17 07:36:08;;;;;;;;;;;22.10;52.20;;;;;;6245550;22;20322;-77
2023/06/17 07:38:34;;;;;;;;;;;22.20;52.60;;;;;;6245770;23;20002;-76
2023/06/17 07:41:00;;;;;;;;;;;22.30;52.30;;;;;;6243887;22;19911;-76
2023/06/17 07:43:26;;;;;;;;;;;22.40;51.80;;;;;;6219176;23;20244;-76
2023/06/17 07:45:52;;;;;;;;;;;22.50;51.50;;;;;;6245840;22;19912;-77
2023/06/17 07:48:18;;;;;;;;;;;22.60;50.70;;;;;;6223881;22;20006;-77
2023/06/17 07:50:44;;;;;;;;;;;22.70;50.70;;;;;;6249160;22;19911;-76
2023/06/17 07:53:10;;;;;;;;;;;22.80;50.40;;;;;;6249499;22;19984;-77
2023/06/17 07:55:37;;;;;;;;;;;22.90;49.00;;;;;;6248910;22;19949;-77
2023/06/17 07:58:03;;;;;;;;;;;23.00;49.20;;;;;;6276507;22;19956;-76
2023/06/17 08:00:29;;;;;;;;;;;23.20;49.20;;;;;;6223596;22;19915;-76
2023/06/17 08:02:55;;;;;;;;;;;23.30;48.10;;;;;;6276460;22;20328;-76
2023/06/17 08:05:21;;;;;;;;;;;23.40;46.70;;;;;;6249149;22;20248;-76
2023/06/17 08:07:47;;;;;;;;;;;23.40;45.90;;;;;;6249334;22;19911;-77
2023/06/17 08:10:13;;;;;;;;;;;23.50;46.40;;;;;;6249044;22;20281;-77
2023/06/17 08:12:39;;;;;;;;;;;23.50;43.40;;;;;;6249423;22;20251;-77
2023/06/17 08:15:06;;;;;;;;;;;23.50;44.20;;;;;;6276027;22;19908;-76
2023/06/17 08:17:32;;;;;;;;;;;23.70;45.20;;;;;;6223835;22;19954;-76
2023/06/17 08:20:23;;;;;;;;;;;23.90;45.20;;;;;;6249253;22;19907;-77
2023/06/17 08:22:49;;;;;;;;;;;24.00;43.50;;;;;;6249308;22;19911;-76
2023/06/17 08:25:15;;;;;;;;;;;24.00;43.00;;;;;;6275934;22;19911;-76
2023/06/17 08:27:47;;;;;;;;;;;24.10;42.80;;;;;;6276062;22;19986;-76
2023/06/17 08:30:13;;;;;;;;;;;24.10;42.90;;;;;;6225690;22;19993;-76
2023/06/17 08:32:39;;;;;;;;;;;24.20;38.20;;;;;;6251107;22;19911;-76
2023/06/17 08:35:06;;;;;;;;;;;24.20;41.00;;;;;;6277880;22;19916;-76
2023/06/17 08:37:33;;;;;;;;;;;24.20;40.20;;;;;;6251250;22;19986;-78
2023/06/17 08:39:59;;;;;;;;;;;24.30;40.60;;;;;;6251031;22;19923;-77
2023/06/17 08:42:28;;;;;;;;;;;24.40;40.60;;;;;;6250473;22;19908;-76
2023/06/17 08:44:54;;;;;;;;;;;24.50;41.00;;;;;;6251072;22;19914;-77
2023/06/17 08:47:20;;;;;;;;;;;24.50;40.50;;;;;;6250151;22;19918;-78
2023/06/17 08:49:46;;;;;;;;;;;24.60;40.10;;;;;;6225769;22;20300;-77
2023/06/17 08:52:14;;;;;;;;;;;24.70;40.70;;;;;;6278064;22;20248;-76
2023/06/17 08:54:40;;;;;;;;;;;24.90;41.10;;;;;;6277760;22;19911;-76
2023/06/17 08:57:26;;;;;;;;;;;25.00;40.50;;;;;;6250066;22;19907;-76
2023/06/17 08:59:52;;;;;;;;;;;25.10;40.30;;;;;;6250990;22;19957;-77
2023/06/17 09:02:18;;;;;;;;;;;25.20;39.30;;;;;;6277211;22;20293;-76
2023/06/17 09:04:44;;;;;;;;;;;25.30;39.70;;;;;;6225193;22;19993;-77
2023/06/17 09:07:11;;;;;;;;;;;25.40;40.20;;;;;;6277096;22;19990;-76
2023/06/17 09:09:37;;;;;;;;;;;25.50;40.20;;;;;;6251180;22;19911;-77
2023/06/17 09:14:49;;;;;;;;;;;25.60;39.20;;;;;;6254828;22;19998;-76
2023/06/17 09:17:36;;;;;;;;;;;25.70;38.40;;;;;;6250159;22;19993;-76
2023/06/17 09:20:21;;;;;;;;;;;25.60;37.90;;;;;;6249867;22;19911;-76
2023/06/17 09:22:47;;;;;;;;;;;25.80;37.80;;;;;;6277394;22;19935;-76
2023/06/17 09:25:15;;;;;;;;;;;25.80;36.10;;;;;;6224818;22;19937;-76
2023/06/17 09:27:59;;;;;;;;;;;26.00;37.30;;;;;;6250524;22;19907;-75
2023/06/17 09:30:25;;;;;;;;;;;26.10;37.60;;;;;;6250060;22;19919;-77
2023/06/17 09:32:52;;;;;;;;;;;26.20;35.00;;;;;;6250287;22;20240;-75
2023/06/17 09:35:18;;;;;;;;;;;26.40;34.70;;;;;;6249713;22;19915;-77
2023/06/17 09:37:48;;;;;;;;;;;26.60;34.40;;;;;;6250506;22;20317;-77
2023/06/17 09:40:14;;;;;;;;;;;27.00;35.30;;;;;;6224284;22;19993;-75
2023/06/17 09:42:42;;;;;;;;;;;27.30;32.50;;;;;;6225052;22;20309;-78
2023/06/17 09:45:11;;;;;;;;;;;27.60;33.70;;;;;;6249970;22;20118;-78
2023/06/17 09:47:37;;;;;;;;;;;28.20;34.00;;;;;;6250147;22;19918;-77
2023/06/17 09:50:04;;;;;;;;;;;28.90;32.30;;;;;;6225081;22;19986;-76
2023/06/17 09:52:32;;;;;;;;;;;29.70;31.90;;;;;;6250094;22;20300;-80
2023/06/17 09:54:58;;;;;;;;;;;30.50;31.70;;;;;;6277557;22;19916;-80
2023/06/17 09:57:43;;;;;;;;;;;31.20;30.00;;;;;;6249941;22;19918;-76
2023/06/17 10:00:10;;;;;;;;;;;31.50;29.80;;;;;;6228188;22;20244;-75
2023/06/17 10:02:38;;;;;;;;;;;32.10;28.60;;;;;;6250485;22;20308;-78
2023/06/17 10:05:04;;;;;;;;;;;32.20;28.30;;;;;;6250302;22;19986;-75
2023/06/17 10:07:31;;;;;;;;;;;32.70;27.30;;;;;;6277127;22;19918;-76
2023/06/17 10:09:57;;;;;;;;;;;33.10;26.40;;;;;;6250122;22;19918;-75
2023/06/17 10:12:24;;;;;;;;;;;33.70;26.20;;;;;;6249687;22;19911;-79
2023/06/17 10:14:51;;;;;;;;;;;34.40;25.20;;;;;;6244123;22;19911;-76
2023/06/17 10:17:18;;;;;;;;;;;34.80;25.00;;;;;;6241283;22;20474;-76
2023/06/17 10:19:46;;;;;;;;;;;35.50;24.20;;;;;;6269422;22;19911;-76
2023/06/17 10:22:13;;;;;;;;;;;36.00;23.30;;;;;;6241022;22;19907;-78
2023/06/17 10:24:39;;;;;;;;;;;36.80;22.70;;;;;;6268986;22;19988;-75
2023/06/17 10:27:06;;;;;;;;;;;37.30;21.60;;;;;;6241138;22;19907;-75
2023/06/17 10:29:32;;;;;;;;;;;37.70;21.30;;;;;;6242065;22;19911;-74
2023/06/17 10:32:19;;;;;;;;;;;37.60;19.50;;;;;;6268490;22;19956;-79
2023/06/17 10:35:22;;;;;;;;;;;37.80;20.40;;;;;;6241935;22;19911;-79
2023/06/17 10:37:50;;;;;;;;;;;38.30;20.20;;;;;;6241399;22;19935;-79
2023/06/17 10:40:38;;;;;;;;;;;39.00;19.70;;;;;;6215454;22;19915;-78
2023/06/17 10:43:04;;;;;;;;;;;39.80;18.80;;;;;;6241455;22;19998;-77
2023/06/17 10:45:49;;;;;;;;;;;40.30;17.90;;;;;;6268813;22;19937;-79
2023/06/17 10:48:28;;;;;;;;;;;40.80;16.70;;;;;;6211369;23;19915;-75
2023/06/17 10:51:00;;;;;;;;;;;41.30;16.90;;;;;;6210763;23;19912;-77
2023/06/17 10:53:28;;;;;;;;;;;41.80;16.10;;;;;;6237445;22;19915;-74
2023/06/17 10:55:56;;;;;;;;;;;42.40;15.90;;;;;;6210851;23;19923;-77
2023/06/17 10:58:23;;;;;;;;;;;42.90;15.30;;;;;;6186373;23;19911;-76
2023/06/17 11:01:08;;;;;;;;;;;42.80;14.70;;;;;;6210430;23;19926;-77
2023/06/17 11:03:34;;;;;;;;;;;43.00;14.90;;;;;;6211438;23;20241;-75
2023/06/17 11:06:20;;;;;;;;;;;43.20;14.90;;;;;;6237786;23;19922;-77
2023/06/17 11:08:46;;;;;;;;;;;43.70;14.10;;;;;;6238472;23;19969;-77
2023/06/17 11:11:30;;;;;;;;;;;44.10;14.40;;;;;;6211256;23;20270;-75
2023/06/17 11:13:56;;;;;;;;;;;44.10;13.80;;;;;;6238542;22;20218;-75
2023/06/17 11:16:22;;;;;;;;;;;43.30;14.30;;;;;;6210452;23;19911;-75
2023/06/17 11:18:48;;;;;;;;;;;43.90;14.30;;;;;;6211072;23;20059;-76
2023/06/17 11:21:15;;;;;;;;;;;44.50;14.30;;;;;;6236877;23;20002;-77
2023/06/17 11:24:00;;;;;;;;;;;44.70;14.30;;;;;;6185291;23;20248;-78
2023/06/17 11:26:27;;;;;;;;;;;45.10;13.90;;;;;;6185285;23;19912;-78
2023/06/17 11:28:52;;;;;;;;;;;45.40;12.70;;;;;;6185677;23;19934;-75
2023/06/17 11:31:20;;;;;;;;;;;45.50;12.40;;;;;;6209894;23;20520;-77
2023/06/17 11:33:47;;;;;;;;;;;46.50;12.90;;;;;;6237674;23;19918;-75
2023/06/17 11:36:13;;;;;;;;;;;47.30;12.20;;;;;;6210746;23;19951;-76
2023/06/17 11:38:40;;;;;;;;;;;47.50;12.40;;;;;;6238003;23;20373;-76
2023/06/17 11:41:06;;;;;;;;;;;46.60;11.90;;;;;;6210497;23;19912;-75
2023/06/17 11:43:32;;;;;;;;;;;46.80;12.50;;;;;;6210899;23;19915;-77
2023/06/17 11:45:58;;;;;;;;;;;46.00;12.00;;;;;;6213675;22;19942;-77
2023/06/17 11:48:45;;;;;;;;;;;44.80;12.80;;;;;;6215244;22;19921;-78
2023/06/17 11:51:14;;;;;;;;;;;45.70;12.50;;;;;;6240555;22;19954;-80
2023/06/17 11:53:44;;;;;;;;;;;46.50;12.60;;;;;;6215590;22;19915;-75
2023/06/17 11:56:11;;;;;;;;;;;45.80;12.90;;;;;;6267408;22;19991;-75
2023/06/17 11:58:57;;;;;;;;;;;45.50;12.20;;;;;;6268369;22;19915;-75
2023/06/17 12:01:44;;;;;;;;;;;45.60;12.10;;;;;;6240097;22;20101;-76
2023/06/17 12:04:12;;;;;;;;;;;46.50;12.20;;;;;;6269328;22;19911;-76
2023/06/17 12:06:38;;;;;;;;;;;47.80;11.70;;;;;;6243717;22;19918;-75
2023/06/17 12:09:03;;;;;;;;;;;48.00;10.60;;;;;;6242632;22;19915;-79
2023/06/17 12:11:32;;;;;;;;;;;48.50;11.10;;;;;;6242748;22;20263;-76
2023/06/17 12:14:16;;;;;;;;;;;48.70;10.90;;;;;;6269983;22;20021;-78
2023/06/17 12:16:43;;;;;;;;;;;47.50;10.90;;;;;;6241734;22;19926;-76
2023/06/17 12:19:28;;;;;;;;;;;48.10;11.30;;;;;;6243902;22;19922;-76
2023/06/17 12:21:54;;;;;;;;;;;48.50;10.40;;;;;;6269130;22;19918;-76
2023/06/17 12:24:20;;;;;;;;;;;48.70;10.90;;;;;;6242718;22;20799;-76
2023/06/17 12:26:46;;;;;;;;;;;49.40;10.80;;;;;;6242157;22;19911;-75
2023/06/17 12:29:13;;;;;;;;;;;49.40;10.20;;;;;;6243187;22;19965;-75
2023/06/17 12:31:39;;;;;;;;;;;49.60;8.80;;;;;;6269664;22;19954;-74
2023/06/17 12:34:06;;;;;;;;;;;49.50;10.20;;;;;;6217563;22;19915;-78
2023/06/17 12:36:32;;;;;;;;;;;49.50;10.80;;;;;;6241871;22;19958;-77
2023/06/17 12:39:00;;;;;;;;;;;47.80;11.10;;;;;;6217589;22;20236;-78
2023/06/17 12:41:26;;;;;;;;;;;47.50;12.00;;;;;;6242983;22;20335;-75
2023/06/17 12:43:52;;;;;;;;;;;46.50;12.00;;;;;;6245043;22;19951;-79
2023/06/17 12:46:18;;;;;;;;;;;44.80;12.60;;;;;;6269645;22;19942;-79
2023/06/17 12:48:44;;;;;;;;;;;43.60;13.60;;;;;;6242533;22;19986;-74
2023/06/17 12:51:10;;;;;;;;;;;42.40;14.10;;;;;;6269612;22;20258;-79
2023/06/17 12:53:36;;;;;;;;;;;41.20;14.30;;;;;;6244096;22;19915;-81
2023/06/17 12:56:02;;;;;;;;;;;40.40;15.50;;;;;;6268910;22;19917;-80
2023/06/17 12:58:28;;;;;;;;;;;39.70;15.50;;;;;;6242354;22;20343;-79
2023/06/17 13:00:54;;;;;;;;;;;39.30;16.90;;;;;;6216772;22;19915;-81
2023/06/17 13:03:21;;;;;;;;;;;39.80;16.80;;;;;;6217177;22;19926;-82
2023/06/17 13:05:48;;;;;;;;;;;39.50;17.40;;;;;;6242506;22;19911;-79
2023/06/17 13:08:14;;;;;;;;;;;39.00;17.70;;;;;;6217825;22;19946;-79
2023/06/17 13:10:41;;;;;;;;;;;38.70;18.00;;;;;;6242142;22;19958;-80
2023/06/17 13:13:07;;;;;;;;;;;38.80;17.40;;;;;;6242927;22;19986;-80
2023/06/17 13:15:33;;;;;;;;;;;38.60;16.90;;;;;;6268547;22;19990;-80
2023/06/17 13:17:59;;;;;;;;;;;38.30;17.80;;;;;;6242181;22;20030;-82
2023/06/17 13:20:26;;;;;;;;;;;37.90;18.10;;;;;;6242686;22;20218;-81
2023/06/17 13:22:52;;;;;;;;;;;37.60;18.60;;;;;;6242293;22;19942;-82
2023/06/17 13:25:18;;;;;;;;;;;37.30;18.50;;;;;;6241448;22;19960;-83
2023/06/17 13:27:44;;;;;;;;;;;37.00;19.20;;;;;;6217164;22;19993;-82
2023/06/17 13:30:10;;;;;;;;;;;36.70;18.70;;;;;;6216617;22;19938;-84
2023/06/17 13:32:36;;;;;;;;;;;36.30;18.20;;;;;;6242348;22;19922;-83
2023/06/17 13:35:03;;;;;;;;;;;36.10;18.90;;;;;;6217081;22;20286;-81
2023/06/17 13:37:30;;;;;;;;;;;36.00;19.50;;;;;;6242323;22;19915;-82
2023/06/17 13:39:57;;;;;;;;;;;35.90;19.00;;;;;;6242610;22;19921;-85
2023/06/17 13:42:23;;;;;;;;;;;35.70;19.40;;;;;;6242175;22;19912;-84
2023/06/17 13:44:48;;;;;;;;;;;35.50;19.40;;;;;;6217694;22;20006;-88
2023/06/17 13:47:14;;;;;;;;;;;35.40;18.70;;;;;;6237890;23;19990;-88
2023/06/17 13:49:41;;;;;;;;;;;35.50;19.10;;;;;;6238218;23;19920;-87
2023/06/17 13:52:07;;;;;;;;;;;35.00;19.10;;;;;;6238001;23;19919;-82
2023/06/17 13:54:34;;;;;;;;;;;34.60;19.70;;;;;;6212446;23;19911;-82
2023/06/17 13:57:00;;;;;;;;;;;34.40;19.50;;;;;;6211690;23;19911;-84
2023/06/17 13:59:26;;;;;;;;;;;34.60;20.60;;;;;;6212034;23;19916;-83
2023/06/17 14:01:52;;;;;;;;;;;34.60;20.50;;;;;;6212021;23;20244;-86
2023/06/17 14:04:17;;;;;;;;;;;34.60;20.90;;;;;;6212507;22;20305;-82
2023/06/17 14:06:46;;;;;;;;;;;34.20;20.00;;;;;;6237002;23;19989;-81
2023/06/17 14:09:13;;;;;;;;;;;33.90;20.40;;;;;;6213020;23;19935;-82
2023/06/17 14:11:40;;;;;;;;;;;33.60;21.30;;;;;;6237041;22;19955;-85
2023/06/17 14:14:08;;;;;;;;;;;33.60;21.90;;;;;;6212311;22;19953;-82
2023/06/17 14:16:34;;;;;;;;;;;33.60;21.90;;;;;;6237009;23;19919;-83
2023/06/17 14:19:00;;;;;;;;;;;33.50;21.20;;;;;;6211877;22;19986;-86
2023/06/17 14:21:27;;;;;;;;;;;33.40;21.60;;;;;;6236602;23;20173;-86
2023/06/17 14:24:10;;;;;;;;;;;33.40;22.30;;;;;;6237488;23;19915;-85